createdAt,value
2022-11-22T00:00:36.242Z,24.13
2022-11-22T00:03:02.911Z,23.43
2022-11-22T00:05:36.211Z,25.23
2022-11-22T00:08:03.665Z,25.40
2022-11-22T00:10:30.389Z,25.17
2022-11-22T00:13:03.207Z,24.23
2022-11-22T00:15:30.432Z,23.63
2022-11-22T00:17:57.161Z,25.30
2022-11-22T00:20:30.191Z,24.57
2022-11-22T00:23:04.158Z,24.87
2022-11-22T00:25:37.182Z,24.23
2022-11-22T00:28:10.253Z,25.10
2022-11-22T00:30:36.907Z,24.63
2022-11-22T00:33:10.256Z,25.40
2022-11-22T00:35:59.164Z,25.50
2022-11-22T00:38:32.185Z,24.43
2022-11-22T00:40:58.820Z,24.90
2022-11-22T00:43:25.541Z,24.40
2022-11-22T00:45:59.172Z,25.40
2022-11-22T00:48:25.762Z,26.17
2022-11-22T00:50:59.284Z,26.73
2022-11-22T00:53:26.145Z,25.53
2022-11-22T00:55:59.232Z,24.53
2022-11-22T00:58:25.948Z,26.20
2022-11-22T01:00:56.571Z,23.90
2022-11-22T01:03:30.256Z,24.73
2022-11-22T01:05:56.854Z,25.50
2022-11-22T01:08:23.726Z,23.77
2022-11-22T01:11:05.178Z,24.23
2022-11-22T01:13:39.248Z,22.80
2022-11-22T01:16:08.206Z,23.80
2022-11-22T01:18:35.243Z,22.77
2022-11-22T01:21:08.177Z,24.60
2022-11-22T01:23:35.253Z,23.60
2022-11-22T01:26:09.156Z,24.23
2022-11-22T01:28:43.165Z,23.23
2022-11-22T01:31:10.113Z,24.53
2022-11-22T01:33:36.741Z,23.80
2022-11-22T01:36:10.252Z,25.03
2022-11-22T01:38:43.654Z,23.40
2022-11-22T01:41:17.143Z,25.80
2022-11-22T01:43:50.202Z,23.77
2022-11-22T01:46:37.321Z,24.83
2022-11-22T01:49:35.251Z,23.47
2022-11-22T01:52:13.849Z,22.40
2022-11-22T01:54:49.211Z,23.40
2022-11-22T01:57:20.784Z,22.60
2022-11-22T02:00:01.172Z,23.43
2022-11-22T02:02:28.327Z,22.33
2022-11-22T02:05:04.201Z,22.37
2022-11-22T02:08:00.197Z,22.90
2022-11-22T02:10:29.043Z,21.17
2022-11-22T02:12:58.890Z,22.30
2022-11-22T02:15:32.202Z,22.25
2022-11-22T02:17:58.886Z,22.27
2022-11-22T02:20:25.504Z,23.20
2022-11-22T02:23:27.227Z,21.37
2022-11-22T02:26:03.225Z,24.10
2022-11-22T02:28:34.710Z,23.10
2022-11-22T02:31:01.439Z,22.83
2022-11-22T02:33:35.180Z,23.27
2022-11-22T02:36:09.183Z,22.27
2022-11-22T02:38:42.220Z,23.30
2022-11-22T02:41:19.231Z,22.53
2022-11-22T02:43:47.496Z,22.97
2022-11-22T02:46:27.200Z,24.07
2022-11-22T02:49:00.244Z,23.73
2022-11-22T02:51:27.188Z,24.00
2022-11-22T02:54:00.251Z,24.67
2022-11-22T02:56:26.836Z,23.37
2022-11-22T02:58:53.466Z,23.23
2022-11-22T03:01:26.238Z,24.77
2022-11-22T03:03:52.922Z,24.27
2022-11-22T03:06:26.205Z,23.60
2022-11-22T03:08:56.409Z,24.27
2022-11-22T03:11:31.134Z,23.80
2022-11-22T03:13:57.724Z,24.13
2022-11-22T03:16:24.317Z,24.13
2022-11-22T03:18:57.172Z,23.13
2022-11-22T03:21:23.743Z,25.13
2022-11-22T03:23:57.176Z,25.07
2022-11-22T03:26:23.955Z,23.97
2022-11-22T03:28:50.633Z,23.90
2022-11-22T03:31:24.196Z,24.83
2022-11-22T03:33:57.188Z,25.17
2022-11-22T03:36:30.612Z,25.67
2022-11-22T03:39:04.228Z,26.13
2022-11-22T03:41:37.180Z,25.77
2022-11-22T03:44:04.423Z,26.57
2022-11-22T03:46:31.099Z,25.63
2022-11-22T03:49:04.155Z,25.93
2022-11-22T03:51:37.210Z,25.17
2022-11-22T03:54:03.903Z,28.10
2022-11-22T03:56:30.616Z,26.53
2022-11-22T03:59:04.157Z,28.27
2022-11-22T04:01:37.208Z,26.87
2022-11-22T04:04:10.133Z,27.53
2022-11-22T04:06:36.816Z,26.93
2022-11-22T04:09:11.244Z,26.93
2022-11-22T04:11:44.136Z,28.40
2022-11-22T04:14:37.166Z,28.33
2022-11-22T04:17:03.796Z,27.33
2022-11-22T04:19:30.645Z,28.33
2022-11-22T04:22:04.222Z,27.63
2022-11-22T04:24:49.550Z,28.17
2022-11-22T04:27:23.151Z,28.40
2022-11-22T04:29:49.717Z,27.87
2022-11-22T04:32:41.179Z,28.97
2022-11-22T04:35:14.416Z,27.43
2022-11-22T04:37:58.161Z,29.67
2022-11-22T04:40:24.844Z,30.57
2022-11-22T04:43:16.144Z,28.93
2022-11-22T04:45:50.187Z,27.93
2022-11-22T04:48:17.431Z,28.37
2022-11-22T04:51:10.215Z,27.43
2022-11-22T04:53:44.146Z,30.80
2022-11-22T04:56:18.146Z,27.87
2022-11-22T04:58:44.827Z,29.37
2022-11-22T05:01:18.346Z,30.90
2022-11-22T05:03:45.113Z,30.33
2022-11-22T05:06:20.224Z,29.77
2022-11-22T05:08:46.842Z,29.60
2022-11-22T05:11:20.223Z,28.87
2022-11-22T05:13:46.861Z,30.90
2022-11-22T05:16:15.078Z,29.57
2022-11-22T05:18:48.327Z,29.90
2022-11-22T05:21:14.961Z,30.27
2022-11-22T05:24:01.220Z,28.40
2022-11-22T05:26:30.045Z,29.30
2022-11-22T05:29:00.566Z,30.83
2022-11-22T05:31:34.138Z,27.20
2022-11-22T05:34:01.128Z,27.03
2022-11-22T05:36:41.168Z,29.30
2022-11-22T05:42:02.130Z,27.50
2022-11-22T05:44:28.766Z,28.67
2022-11-22T05:47:02.234Z,27.13
2022-11-22T05:49:29.217Z,29.50
2022-11-22T05:51:55.978Z,29.60
2022-11-22T05:54:29.217Z,27.90
2022-11-22T05:57:03.152Z,28.37
2022-11-22T05:59:29.868Z,29.90
2022-11-22T06:01:56.610Z,29.90
2022-11-22T06:04:30.140Z,29.03
2022-11-22T06:07:08.355Z,28.77
2022-11-22T06:09:43.224Z,29.63
2022-11-22T06:12:16.137Z,28.83
2022-11-22T06:14:49.241Z,27.40
2022-11-22T06:17:16.784Z,29.40
2022-11-22T06:19:50.146Z,28.63
2022-11-22T06:22:16.749Z,27.52
2022-11-22T06:24:50.166Z,29.30
2022-11-22T06:27:16.805Z,29.23
2022-11-22T06:29:50.164Z,29.07
2022-11-22T06:32:16.835Z,27.37
2022-11-22T06:34:50.167Z,28.87
2022-11-22T06:37:23.151Z,28.43
2022-11-22T06:39:57.165Z,28.07
2022-11-22T06:42:23.828Z,28.13
2022-11-22T06:44:50.506Z,29.33
2022-11-22T06:47:24.129Z,29.57
2022-11-22T06:49:57.293Z,28.80
2022-11-22T06:52:24.081Z,30.03
2022-11-22T06:54:50.692Z,27.27
2022-11-22T06:57:24.145Z,28.67
2022-11-22T06:59:50.743Z,28.60
2022-11-22T07:02:17.376Z,29.93
2022-11-22T07:05:17.238Z,27.50
2022-11-22T07:07:43.242Z,27.83
2022-11-22T07:10:17.272Z,28.23
2022-11-22T07:12:43.916Z,31.13
2022-11-22T07:15:11.078Z,28.97
2022-11-22T07:17:44.301Z,27.80
2022-11-22T07:20:17.112Z,30.42
2022-11-22T07:22:43.726Z,32.00
2022-11-22T07:25:10.690Z,29.90
2022-11-22T07:27:44.166Z,28.93
2022-11-22T07:30:11.314Z,29.93
2022-11-22T07:32:37.908Z,29.60
2022-11-22T07:35:11.149Z,28.85
2022-11-22T07:37:44.571Z,29.48
2022-11-22T07:40:18.119Z,30.20
2022-11-22T07:42:57.024Z,28.63
2022-11-22T07:45:25.174Z,29.30
2022-11-22T07:47:58.198Z,30.23
2022-11-22T07:50:24.911Z,30.25
2022-11-22T07:53:05.256Z,30.02
2022-11-22T07:55:31.911Z,29.50
2022-11-22T07:57:59.521Z,30.33
2022-11-22T08:00:33.220Z,28.88
2022-11-22T08:03:06.184Z,29.98
2022-11-22T08:05:32.800Z,30.40
2022-11-22T08:08:06.212Z,29.95
2022-11-22T08:10:32.833Z,29.33
2022-11-22T08:13:07.197Z,29.85
2022-11-22T08:15:33.986Z,29.95
2022-11-22T08:18:00.633Z,28.92
2022-11-22T08:20:34.181Z,30.00
2022-11-22T08:23:07.526Z,31.10
2022-11-22T08:25:41.143Z,28.65
2022-11-22T08:28:07.870Z,31.35
2022-11-22T08:30:41.128Z,30.23
2022-11-22T08:33:14.201Z,32.08
2022-11-22T08:35:47.128Z,30.65
2022-11-22T08:38:27.165Z,31.88
2022-11-22T08:40:54.038Z,33.38
2022-11-22T08:43:20.703Z,31.75
2022-11-22T08:46:02.243Z,32.28
2022-11-22T08:48:30.589Z,33.42
2022-11-22T08:51:06.492Z,30.65
2022-11-22T08:53:35.014Z,31.20
2022-11-22T08:56:03.127Z,34.10
2022-11-22T08:58:37.264Z,33.58
2022-11-22T09:01:09.061Z,32.20
2022-11-22T09:03:37.174Z,33.60
2022-11-22T09:09:22.024Z,35.08
2022-11-22T09:11:52.121Z,34.58
2022-11-22T09:14:25.117Z,34.42
2022-11-22T09:16:58.141Z,33.38
2022-11-22T09:19:25.291Z,34.25
2022-11-22T09:21:52.080Z,34.53
2022-11-22T09:24:25.784Z,35.03
2022-11-22T09:26:52.370Z,34.47
2022-11-22T09:29:19.082Z,33.60
2022-11-22T09:31:52.346Z,34.38
2022-11-22T09:34:19.060Z,33.97
2022-11-22T09:37:06.177Z,35.45
2022-11-22T09:39:53.107Z,33.20
2022-11-22T09:42:55.162Z,34.03
2022-11-22T09:45:35.031Z,32.25
2022-11-22T09:48:28.188Z,33.15
2022-11-22T09:51:09.048Z,34.17
2022-11-22T09:53:56.109Z,32.45
2022-11-22T09:56:26.938Z,31.35
2022-11-22T09:59:13.105Z,32.70
2022-11-22T10:01:45.266Z,32.13
2022-11-22T10:04:26.189Z,32.67
2022-11-22T10:07:03.422Z,31.85
2022-11-22T10:09:48.244Z,36.05
2022-11-22T10:12:41.197Z,33.28
2022-11-22T10:15:40.222Z,32.35
2022-11-22T10:18:29.025Z,30.17
2022-11-22T10:21:02.116Z,32.25
2022-11-22T10:23:29.356Z,32.05
2022-11-22T10:26:18.096Z,32.55
2022-11-22T10:29:20.276Z,32.05
2022-11-22T10:32:05.261Z,33.40
2022-11-22T10:34:56.923Z,31.73
2022-11-22T10:37:42.209Z,31.77
2022-11-22T10:40:40.174Z,31.13
2022-11-22T10:43:42.133Z,34.20
2022-11-22T10:46:27.121Z,30.63
2022-11-22T10:49:13.140Z,32.45
2022-11-22T10:52:09.789Z,31.38
2022-11-22T10:54:57.171Z,32.45
2022-11-22T10:57:38.511Z,31.15
2022-11-22T11:00:28.121Z,31.48
2022-11-22T11:03:05.448Z,31.33
2022-11-22T11:06:21.593Z,30.60
2022-11-22T11:11:58.281Z,29.85
2022-11-22T11:14:37.314Z,34.13
2022-11-22T11:17:13.156Z,30.67
2022-11-22T11:19:43.061Z,30.58
2022-11-22T11:22:09.613Z,29.20
2022-11-22T11:24:47.137Z,30.60
2022-11-22T11:27:17.046Z,30.42
2022-11-22T11:29:57.485Z,28.67
2022-11-22T11:32:24.074Z,30.00
2022-11-22T11:35:04.150Z,30.60
2022-11-22T11:37:36.759Z,30.00
2022-11-22T11:40:38.235Z,28.98
2022-11-22T11:43:22.752Z,30.63
2022-11-22T11:45:56.181Z,27.83
2022-11-22T11:48:28.233Z,29.42
2022-11-22T11:51:20.090Z,30.17
2022-11-22T11:54:04.620Z,28.33
2022-11-22T11:56:45.120Z,30.17
2022-11-22T11:59:32.333Z,28.60
2022-11-22T12:02:13.339Z,27.70
2022-11-22T12:05:17.712Z,29.73
2022-11-22T12:07:52.168Z,28.42
2022-11-22T12:10:29.726Z,27.83
2022-11-22T12:13:18.502Z,30.20
2022-11-22T12:15:57.045Z,28.90
2022-11-22T12:18:59.102Z,29.77
2022-11-22T12:21:59.257Z,29.25
2022-11-22T12:25:16.518Z,29.52
2022-11-22T12:27:41.169Z,28.45
2022-11-22T12:30:12.485Z,27.15
2022-11-22T12:32:53.246Z,26.92
2022-11-22T12:35:23.696Z,28.05
2022-11-22T12:38:07.145Z,27.40
2022-11-22T12:40:48.249Z,27.25
2022-11-22T12:43:36.120Z,27.27
2022-11-22T12:46:19.755Z,29.15
2022-11-22T12:49:07.214Z,28.67
2022-11-22T12:51:47.644Z,27.00
2022-11-22T12:54:26.152Z,27.65
2022-11-22T12:56:56.362Z,26.63
2022-11-22T13:02:45.346Z,27.77
2022-11-22T13:05:24.170Z,27.77
2022-11-22T13:07:58.955Z,26.58
2022-11-22T13:10:56.177Z,26.80
2022-11-22T13:13:36.201Z,28.75
2022-11-22T13:16:14.430Z,27.67
2022-11-22T13:19:04.065Z,27.45
2022-11-22T13:22:03.105Z,26.58
2022-11-22T13:24:47.573Z,28.60
2022-11-22T13:27:38.109Z,27.00
2022-11-22T13:30:05.499Z,27.80
2022-11-22T13:32:34.788Z,28.08
2022-11-22T13:35:24.186Z,26.65
2022-11-22T13:37:54.065Z,26.38
2022-11-22T13:40:57.112Z,28.42
2022-11-22T13:43:52.559Z,27.40
2022-11-22T13:46:57.181Z,25.88
2022-11-22T13:49:37.414Z,27.67
2022-11-22T13:52:24.163Z,26.88
2022-11-22T13:54:52.792Z,27.35
2022-11-22T13:57:41.172Z,27.95
2022-11-22T14:00:23.259Z,26.65
2022-11-22T14:02:54.868Z,26.55
2022-11-22T14:05:52.203Z,27.58
2022-11-22T14:08:30.458Z,24.67
2022-11-22T14:11:03.123Z,28.45
2022-11-22T14:13:59.558Z,27.17
2022-11-22T14:16:33.107Z,26.75
2022-11-22T14:19:44.612Z,26.50
2022-11-22T14:22:29.200Z,27.63
2022-11-22T14:25:12.152Z,27.33
2022-11-22T14:27:56.853Z,27.27
2022-11-22T14:30:51.784Z,27.38
2022-11-22T14:33:31.117Z,27.45
2022-11-22T14:36:06.942Z,28.48
2022-11-22T14:38:45.231Z,26.67
2022-11-22T14:41:34.133Z,27.13
2022-11-22T14:44:16.187Z,27.73
2022-11-22T14:47:09.230Z,27.40
2022-11-22T14:49:55.208Z,30.30
2022-11-22T14:52:25.743Z,28.45
2022-11-22T14:55:08.216Z,30.25
2022-11-22T14:57:44.188Z,28.98
2022-11-22T15:00:31.116Z,29.58
2022-11-22T15:03:16.108Z,29.45
2022-11-22T15:09:21.647Z,29.25
2022-11-22T15:09:50.992Z,27.80
2022-11-22T15:12:50.081Z,27.52
2022-11-22T15:57:44.828Z,29.23
2022-11-22T16:00:24.525Z,29.77
2022-11-22T16:03:04.124Z,30.23
2022-11-22T16:06:10.355Z,30.52
2022-11-22T16:08:32.669Z,30.80
2022-11-22T16:11:00.121Z,33.15
2022-11-22T16:13:28.958Z,31.67
2022-11-22T16:16:17.103Z,33.03
2022-11-22T16:18:51.126Z,33.60
2022-11-22T16:21:28.112Z,34.08
2022-11-22T16:24:18.774Z,32.60
2022-11-22T16:27:04.073Z,31.88
2022-11-22T16:29:34.186Z,35.47
2022-11-22T16:32:20.210Z,32.90
2022-11-22T16:35:21.735Z,32.92
2022-11-22T16:37:57.137Z,32.28
2022-11-22T16:40:30.973Z,34.15
2022-11-22T16:43:09.419Z,35.05
2022-11-22T16:45:36.384Z,35.97
2022-11-22T16:50:50.137Z,33.60
2022-11-22T16:53:23.099Z,34.08
2022-11-22T16:55:50.314Z,35.10
2022-11-22T16:58:30.191Z,36.25
2022-11-22T17:01:03.174Z,34.15
2022-11-22T17:03:33.713Z,33.45
2022-11-22T17:06:07.072Z,36.45
2022-11-22T17:08:33.683Z,36.40
2022-11-22T17:11:00.557Z,34.90
2022-11-22T17:13:34.112Z,34.95
2022-11-22T17:16:00.778Z,34.55
2022-11-22T17:18:34.078Z,33.00
2022-11-22T17:21:00.733Z,35.13
2022-11-22T17:23:42.098Z,34.45
2022-11-22T17:26:10.145Z,34.25
2022-11-22T17:28:36.785Z,34.75
2022-11-22T17:31:12.060Z,34.55
2022-11-22T17:33:45.067Z,33.45
2022-11-22T17:36:41.169Z,32.50
2022-11-22T17:39:17.092Z,34.50
2022-11-22T17:41:50.124Z,32.95
2022-11-22T17:44:24.071Z,35.80
2022-11-22T17:46:50.665Z,33.35
2022-11-22T17:49:17.297Z,34.78
2022-11-22T17:51:51.137Z,34.85
2022-11-22T17:54:17.821Z,35.15
2022-11-22T17:56:51.542Z,34.92
2022-11-22T17:59:25.172Z,35.22
2022-11-22T18:01:58.133Z,35.42
2022-11-22T18:04:31.572Z,35.55
2022-11-22T18:07:05.234Z,34.95
2022-11-22T18:09:32.369Z,34.72
2022-11-22T18:11:59.287Z,32.97
2022-11-22T18:14:34.094Z,34.10
2022-11-22T18:17:00.756Z,33.42
2022-11-22T18:19:34.483Z,36.00
2022-11-22T18:22:01.152Z,32.80
2022-11-22T18:24:27.767Z,34.65
2022-11-22T18:27:01.082Z,35.80
2022-11-22T18:29:53.240Z,34.28
2022-11-22T18:32:19.901Z,33.88
2022-11-22T18:34:53.076Z,34.83
2022-11-22T18:37:26.133Z,33.67
2022-11-22T18:39:59.480Z,32.97
2022-11-22T18:42:33.066Z,33.92
2022-11-22T18:44:59.889Z,35.03
2022-11-22T18:47:33.086Z,34.30
2022-11-22T18:50:09.608Z,37.05
2022-11-22T18:52:39.114Z,33.50
2022-11-22T18:55:14.113Z,35.58
2022-11-22T18:57:40.731Z,33.95
2022-11-22T19:00:08.605Z,34.88
2022-11-22T19:02:42.109Z,37.15
2022-11-22T19:05:08.925Z,34.60
2022-11-22T19:07:35.678Z,34.08
2022-11-22T19:10:09.221Z,35.85
2022-11-22T19:12:35.870Z,33.25
2022-11-22T19:15:09.070Z,32.85
2022-11-22T19:17:37.646Z,34.75
2022-11-22T19:20:32.129Z,35.20
2022-11-22T19:22:57.644Z,35.30
2022-11-22T19:25:31.118Z,34.65
2022-11-22T19:28:04.040Z,36.05
2022-11-22T19:30:41.254Z,34.50
2022-11-22T19:33:17.171Z,35.53
2022-11-22T19:35:54.296Z,34.70
2022-11-22T19:38:27.148Z,36.35
2022-11-22T19:41:07.061Z,34.08
2022-11-22T19:43:33.657Z,36.17
2022-11-22T19:46:01.780Z,34.22
2022-11-22T19:48:35.132Z,34.60
2022-11-22T19:51:13.560Z,33.63
2022-11-22T19:53:47.070Z,33.35
2022-11-22T19:56:16.629Z,33.95
2022-11-22T19:58:44.820Z,36.97
2022-11-22T20:01:20.193Z,34.47
2022-11-22T20:03:57.080Z,34.58
2022-11-22T20:06:23.724Z,36.08
2022-11-22T20:08:50.359Z,34.30
2022-11-22T20:11:28.145Z,35.28
2022-11-22T20:13:54.824Z,31.50
2022-11-22T20:16:31.088Z,32.20
2022-11-22T20:19:03.755Z,33.70
2022-11-22T20:21:38.137Z,34.80
2022-11-22T20:24:06.297Z,34.55
2022-11-22T20:26:40.096Z,33.03
2022-11-22T20:29:08.594Z,31.90
2022-11-22T20:31:44.176Z,34.53
2022-11-22T20:34:17.618Z,32.25
2022-11-22T20:36:51.057Z,32.17
2022-11-22T20:39:17.664Z,36.35
2022-11-22T20:42:26.403Z,37.78
2022-11-22T20:44:51.055Z,37.22
2022-11-22T20:47:17.712Z,35.67
2022-11-22T20:49:51.072Z,35.35
2022-11-22T20:52:17.661Z,32.72
2022-11-22T20:54:51.062Z,33.13
2022-11-22T20:57:17.757Z,31.33
2022-11-22T20:59:51.085Z,33.10
2022-11-22T21:02:18.037Z,33.75
2022-11-22T21:04:44.687Z,33.95
2022-11-22T21:07:18.160Z,32.45
2022-11-22T21:09:44.774Z,32.80
2022-11-22T21:12:11.518Z,33.15
2022-11-22T21:14:45.098Z,32.35
2022-11-22T21:17:39.323Z,33.92
2022-11-22T21:20:05.039Z,33.47
2022-11-22T21:22:38.054Z,31.42
2022-11-22T21:25:05.722Z,35.08
2022-11-22T21:27:32.585Z,35.15
2022-11-22T21:30:06.120Z,32.38
2022-11-22T21:32:32.846Z,35.50
2022-11-22T21:34:59.460Z,33.45
2022-11-22T21:37:33.050Z,36.42
2022-11-22T21:40:06.072Z,35.50
2022-11-22T21:42:40.727Z,32.95
2022-11-22T21:45:15.059Z,32.35
2022-11-22T21:47:41.951Z,33.38
2022-11-22T21:50:11.854Z,36.97
2022-11-22T21:52:45.116Z,35.45
2022-11-22T21:55:12.031Z,34.50
2022-11-22T21:57:45.071Z,33.58
2022-11-22T22:00:19.143Z,32.53
2022-11-22T22:02:45.735Z,33.20
2022-11-22T22:05:12.376Z,33.90
2022-11-22T22:07:52.440Z,34.97
2022-11-22T22:10:19.778Z,35.58
2022-11-22T22:12:56.100Z,34.47
2022-11-22T22:15:29.052Z,33.33
2022-11-22T22:17:55.647Z,31.95
2022-11-22T22:20:22.993Z,34.40
2022-11-22T22:22:56.059Z,34.95
2022-11-22T22:25:29.170Z,33.28
2022-11-22T22:28:04.105Z,33.67
2022-11-22T22:30:30.695Z,34.17
2022-11-22T22:33:05.120Z,34.67
2022-11-22T22:35:38.060Z,38.65
2022-11-22T22:38:04.632Z,31.40
2022-11-22T22:40:38.115Z,35.20
2022-11-22T22:43:18.077Z,37.03
2022-11-22T22:45:51.138Z,35.83
2022-11-22T22:48:18.520Z,34.28
2022-11-22T22:50:52.042Z,36.72
2022-11-22T22:53:25.056Z,35.38
2022-11-22T22:56:02.076Z,35.78
2022-11-22T22:58:28.724Z,37.30
2022-11-22T23:00:55.466Z,35.28
2022-11-22T23:03:29.123Z,38.13
2022-11-22T23:05:55.745Z,35.70
2022-11-22T23:08:29.109Z,38.80
2022-11-22T23:11:01.304Z,37.75
2022-11-22T23:13:34.055Z,34.85
2022-11-22T23:16:08.114Z,37.35
2022-11-22T23:18:38.526Z,35.13
2022-11-22T23:21:07.268Z,34.92
2022-11-22T23:23:41.090Z,37.15
2022-11-22T23:26:10.639Z,35.78
2022-11-22T23:28:44.108Z,34.55
2022-11-22T23:31:13.622Z,34.08
2022-11-22T23:33:42.068Z,31.13
2022-11-22T23:36:18.166Z,36.22
2022-11-22T23:38:45.622Z,32.38
2022-11-22T23:41:27.054Z,34.83
2022-11-22T23:43:55.355Z,36.55
2022-11-22T23:46:24.859Z,36.58
2022-11-22T23:49:03.030Z,37.05
2022-11-22T23:51:31.787Z,36.70
2022-11-22T23:54:00.737Z,35.40
2022-11-22T23:56:35.065Z,35.08
2022-11-22T23:59:02.219Z,35.13
